createdAt,value
2018-04-30T00:02:29.781Z,15.20
2018-04-30T00:05:01.254Z,15.97
2018-04-30T00:07:32.601Z,15.83
2018-04-30T00:10:03.631Z,14.83
2018-04-30T00:12:35.735Z,15.80
2018-04-30T00:15:07.157Z,16.47
2018-04-30T00:17:39.389Z,15.43
2018-04-30T00:20:10.754Z,15.93
2018-04-30T00:22:42.888Z,16.50
2018-04-30T00:25:14.204Z,15.23
2018-04-30T00:27:45.597Z,15.37
2018-04-30T00:30:16.973Z,17.00
2018-04-30T00:32:49.090Z,17.83
2018-04-30T00:35:21.252Z,15.80
2018-04-30T00:37:52.582Z,16.03
2018-04-30T00:40:24.077Z,16.57
2018-04-30T00:42:55.466Z,17.07
2018-04-30T00:45:27.625Z,16.23
2018-04-30T00:48:00.445Z,15.77
2018-04-30T00:50:31.939Z,16.93
2018-04-30T00:53:03.761Z,14.47
2018-04-30T00:55:34.765Z,12.40
2018-04-30T00:58:06.872Z,14.17
2018-04-30T01:00:37.610Z,14.40
2018-04-30T01:03:09.923Z,15.10
2018-04-30T01:05:41.266Z,15.97
2018-04-30T01:08:12.634Z,15.73
2018-04-30T01:10:44.745Z,16.07
2018-04-30T01:13:16.119Z,15.67
2018-04-30T01:15:47.467Z,16.20
2018-04-30T01:18:18.837Z,15.80
2018-04-30T01:20:50.572Z,16.13
2018-04-30T01:23:22.037Z,17.83
2018-04-30T01:25:53.361Z,15.10
2018-04-30T01:28:24.763Z,15.80
2018-04-30T01:30:56.713Z,15.13
2018-04-30T01:33:28.063Z,15.73
2018-04-30T01:35:59.397Z,17.57
2018-04-30T01:38:31.435Z,16.33
2018-04-30T01:41:02.555Z,14.23
2018-04-30T01:43:34.023Z,15.00
2018-04-30T01:46:05.088Z,16.13
2018-04-30T01:48:36.193Z,14.13
2018-04-30T01:51:07.602Z,15.47
2018-04-30T01:53:39.057Z,15.27
2018-04-30T01:56:10.530Z,15.67
2018-04-30T01:58:41.918Z,17.37
2018-04-30T02:01:13.423Z,20.40
2018-04-30T02:03:44.810Z,22.07
2018-04-30T02:06:16.182Z,24.17
2018-04-30T02:08:47.569Z,24.33
2018-04-30T02:11:18.977Z,22.43
2018-04-30T02:13:50.310Z,26.83
2018-04-30T02:16:22.029Z,25.10
2018-04-30T02:18:53.393Z,26.57
2018-04-30T02:21:25.532Z,26.57
2018-04-30T02:23:56.902Z,25.43
2018-04-30T02:26:29.906Z,25.47
2018-04-30T02:29:02.016Z,23.57
2018-04-30T02:31:33.377Z,26.13
2018-04-30T02:34:05.180Z,27.40
2018-04-30T02:36:37.309Z,26.00
2018-04-30T02:39:09.252Z,28.60
2018-04-30T02:41:40.463Z,30.47
2018-04-30T02:44:11.679Z,27.53
2018-04-30T02:46:43.666Z,25.77
2018-04-30T02:49:15.753Z,27.13
2018-04-30T02:51:46.890Z,28.20
2018-04-30T02:54:18.854Z,28.07
2018-04-30T02:56:50.249Z,29.97
2018-04-30T02:59:22.246Z,29.00
2018-04-30T03:01:53.453Z,28.03
2018-04-30T03:04:24.784Z,28.47
2018-04-30T03:06:56.352Z,30.77
2018-04-30T03:09:27.657Z,29.23
2018-04-30T03:11:58.830Z,27.00
2018-04-30T03:14:30.110Z,28.87
2018-04-30T03:17:01.547Z,30.17
2018-04-30T03:19:32.762Z,29.33
2018-04-30T03:22:03.838Z,26.23
2018-04-30T03:24:36.192Z,29.10
2018-04-30T03:27:07.454Z,27.10
2018-04-30T03:29:38.639Z,24.83
2018-04-30T03:32:10.023Z,23.40
2018-04-30T03:34:41.381Z,23.13
2018-04-30T03:37:13.637Z,22.77
2018-04-30T03:39:45.065Z,23.63
2018-04-30T03:42:16.406Z,26.00
2018-04-30T03:44:47.786Z,27.80
2018-04-30T03:47:19.887Z,30.10
2018-04-30T03:49:51.581Z,35.13
2018-04-30T03:52:23.009Z,35.90
2018-04-30T03:54:54.385Z,35.17
2018-04-30T03:57:25.918Z,38.37
2018-04-30T03:59:57.297Z,39.73
2018-04-30T04:02:46.901Z,41.90
2018-04-30T04:29:58.375Z,33.87
2018-04-30T04:32:29.934Z,32.57
2018-04-30T04:35:01.315Z,32.20
2018-04-30T04:37:32.665Z,29.30
2018-04-30T04:40:03.749Z,25.00
2018-04-30T04:42:36.732Z,25.40
2018-04-30T04:45:08.437Z,25.73
2018-04-30T04:47:39.825Z,22.47
2018-04-30T04:50:11.990Z,19.03
2018-04-30T04:52:43.412Z,20.83
2018-04-30T04:55:14.798Z,19.23
2018-04-30T04:57:46.163Z,16.97
2018-04-30T05:00:18.275Z,15.70
2018-04-30T05:02:49.751Z,17.80
2018-04-30T05:05:21.105Z,15.27
2018-04-30T05:07:52.489Z,13.40
2018-04-30T05:10:24.620Z,14.03
2018-04-30T05:12:56.429Z,14.33
2018-04-30T05:15:28.238Z,13.87
2018-04-30T05:18:00.482Z,15.97
2018-04-30T05:20:32.918Z,11.40
2018-04-30T05:23:05.082Z,10.20
2018-04-30T05:25:37.222Z,11.67
2018-04-30T05:28:08.598Z,9.17
2018-04-30T05:30:40.707Z,10.90
2018-04-30T05:33:12.063Z,9.37
2018-04-30T05:35:43.514Z,9.67
2018-04-30T05:38:16.495Z,8.70
2018-04-30T05:40:48.567Z,8.67
2018-04-30T05:43:21.122Z,8.47
2018-04-30T05:45:53.214Z,10.07
2018-04-30T05:48:24.561Z,8.07
2018-04-30T05:50:55.915Z,7.83
2018-04-30T05:53:27.599Z,8.40
2018-04-30T05:55:58.951Z,7.50
2018-04-30T05:58:30.062Z,6.97
2018-04-30T06:01:01.918Z,6.60
2018-04-30T06:03:34.187Z,6.30
2018-04-30T06:06:05.206Z,5.40
2018-04-30T06:08:37.393Z,5.90
2018-04-30T06:11:09.565Z,4.47
2018-04-30T06:13:41.235Z,4.27
2018-04-30T06:16:13.321Z,5.33
2018-04-30T06:18:44.794Z,4.30
2018-04-30T06:21:16.109Z,3.60
2018-04-30T06:23:47.606Z,3.80
2018-04-30T06:26:19.110Z,3.30
2018-04-30T06:28:50.427Z,4.17
2018-04-30T06:31:23.009Z,3.53
2018-04-30T06:33:54.495Z,3.10
2018-04-30T06:36:25.858Z,2.60
2018-04-30T06:38:57.205Z,4.17
2018-04-30T06:41:28.680Z,2.53
2018-04-30T06:44:00.065Z,2.47
2018-04-30T06:46:31.442Z,4.33
2018-04-30T06:49:02.818Z,3.07
2018-04-30T06:51:35.756Z,2.40
2018-04-30T06:54:07.904Z,1.93
2018-04-30T06:56:40.845Z,1.70
2018-04-30T06:59:12.254Z,2.20
2018-04-30T07:01:43.580Z,1.83
2018-04-30T07:04:15.110Z,2.50
2018-04-30T07:06:46.435Z,1.60
2018-04-30T07:09:17.947Z,1.00
2018-04-30T07:11:49.480Z,1.43
2018-04-30T07:14:21.156Z,1.10
2018-04-30T07:16:54.050Z,1.13
2018-04-30T07:19:26.358Z,1.30
2018-04-30T07:21:57.715Z,1.47
2018-04-30T07:24:29.046Z,1.20
2018-04-30T07:27:01.624Z,0.83
2018-04-30T07:29:33.014Z,1.03
2018-04-30T07:32:04.531Z,1.10
2018-04-30T07:34:36.060Z,1.00
2018-04-30T07:37:08.262Z,0.70
2018-04-30T07:39:39.665Z,1.30
2018-04-30T07:42:11.593Z,1.00
2018-04-30T07:44:42.973Z,0.80
2018-04-30T07:47:14.436Z,0.80
2018-04-30T07:49:47.308Z,0.83
2018-04-30T07:52:18.755Z,2.47
2018-04-30T07:54:50.061Z,1.03
2018-04-30T07:57:22.327Z,1.20
2018-04-30T07:59:54.506Z,2.13
2018-04-30T08:02:25.869Z,2.17
2018-04-30T08:04:57.290Z,0.77
2018-04-30T08:07:30.186Z,1.23
2018-04-30T08:10:01.625Z,1.67
2018-04-30T08:12:32.918Z,1.53
2018-04-30T08:15:03.681Z,0.87
2018-04-30T08:17:35.073Z,0.83
2018-04-30T08:20:06.489Z,1.77
2018-04-30T08:22:38.034Z,0.60
2018-04-30T08:25:10.180Z,1.43
2018-04-30T08:27:41.629Z,2.13
2018-04-30T08:30:13.010Z,1.10
2018-04-30T08:32:44.344Z,1.03
2018-04-30T08:35:15.715Z,2.70
2018-04-30T08:37:47.033Z,2.53
2018-04-30T08:40:18.521Z,1.23
2018-04-30T08:42:49.909Z,1.87
2018-04-30T08:45:22.002Z,2.77
2018-04-30T08:47:53.401Z,2.13
2018-04-30T08:50:24.936Z,1.93
2018-04-30T08:52:57.802Z,3.63
2018-04-30T08:55:30.064Z,1.93
2018-04-30T08:58:01.498Z,1.40
2018-04-30T09:00:32.467Z,1.60
2018-04-30T09:03:03.980Z,1.27
2018-04-30T09:05:35.349Z,1.63
2018-04-30T09:08:06.702Z,1.10
2018-04-30T09:10:38.158Z,1.00
2018-04-30T09:13:09.574Z,1.40
2018-04-30T09:15:40.951Z,2.17
2018-04-30T09:18:11.963Z,1.23
2018-04-30T09:20:43.414Z,1.03
2018-04-30T09:23:14.790Z,1.23
2018-04-30T09:25:46.446Z,1.20
2018-04-30T09:28:17.815Z,0.67
2018-04-30T09:30:49.294Z,2.27
2018-04-30T09:33:20.815Z,1.37
2018-04-30T09:35:52.378Z,0.73
2018-04-30T09:38:23.887Z,0.70
2018-04-30T09:40:55.244Z,1.07
2018-04-30T09:43:26.741Z,0.70
2018-04-30T09:45:58.268Z,1.20
2018-04-30T09:48:33.410Z,1.40
2018-04-30T09:51:05.570Z,1.30
2018-04-30T09:53:37.768Z,0.80
2018-04-30T09:56:09.155Z,1.17
2018-04-30T09:58:41.428Z,0.70
2018-04-30T10:01:12.807Z,0.80
2018-04-30T10:03:44.432Z,0.63
2018-04-30T10:06:15.845Z,0.80
2018-04-30T10:08:47.219Z,2.20
2018-04-30T10:11:18.550Z,2.03
2018-04-30T10:13:50.918Z,1.27
2018-04-30T10:16:22.428Z,0.63
2018-04-30T10:18:54.513Z,1.00
2018-04-30T10:21:25.977Z,1.53
2018-04-30T10:23:57.407Z,0.60
2018-04-30T10:26:28.927Z,1.40
2018-04-30T10:29:01.236Z,1.40
2018-04-30T10:31:33.564Z,0.80
2018-04-30T10:34:05.825Z,1.30
2018-04-30T10:36:37.958Z,0.83
2018-04-30T10:39:09.078Z,2.00
2018-04-30T10:41:41.192Z,1.13
2018-04-30T10:44:12.709Z,4.93
2018-04-30T10:46:44.069Z,2.00
2018-04-30T10:49:15.454Z,1.50
2018-04-30T10:51:46.801Z,1.23
2018-04-30T10:54:18.210Z,0.80
2018-04-30T10:56:49.586Z,1.73
2018-04-30T10:59:20.966Z,1.27
2018-04-30T11:01:52.382Z,2.47
2018-04-30T11:04:23.740Z,1.47
2018-04-30T11:06:55.255Z,1.10
2018-04-30T11:09:26.769Z,2.37
2018-04-30T11:11:58.101Z,1.10
2018-04-30T11:14:30.241Z,0.70
2018-04-30T11:17:01.803Z,0.90
2018-04-30T11:19:33.157Z,1.00
2018-04-30T11:22:04.610Z,5.23
2018-04-30T11:24:35.962Z,1.07
2018-04-30T11:27:07.593Z,1.20
2018-04-30T11:29:40.795Z,5.03
2018-04-30T11:32:13.147Z,2.77
2018-04-30T11:34:45.264Z,1.93
2018-04-30T11:37:16.644Z,1.87
2018-04-30T11:39:48.289Z,0.60
2018-04-30T11:42:19.642Z,2.93
2018-04-30T11:44:51.205Z,1.30
2018-04-30T11:47:23.029Z,1.70
2018-04-30T11:49:54.254Z,1.00
2018-04-30T11:52:25.775Z,1.40
2018-04-30T11:54:57.914Z,2.77
2018-04-30T11:57:29.483Z,1.10
2018-04-30T12:00:00.873Z,1.10
2018-04-30T12:02:33.214Z,0.80
2018-04-30T12:05:04.981Z,2.67
2018-04-30T12:07:37.265Z,2.27
2018-04-30T12:10:09.577Z,1.40
2018-04-30T12:12:40.948Z,1.87
2018-04-30T12:15:12.486Z,3.80
2018-04-30T12:17:44.877Z,3.33
2018-04-30T12:20:16.535Z,0.63
2018-04-30T12:22:47.898Z,1.47
2018-04-30T12:25:19.475Z,3.57
2018-04-30T12:27:51.777Z,0.57
2018-04-30T12:30:23.761Z,1.70
2018-04-30T12:32:55.095Z,0.73
2018-04-30T12:35:26.720Z,0.70
2018-04-30T12:37:58.240Z,1.50
2018-04-30T12:40:29.841Z,3.90
2018-04-30T12:43:02.403Z,0.63
2018-04-30T12:45:34.170Z,0.73
2018-04-30T12:48:06.751Z,1.50
2018-04-30T12:50:38.219Z,0.67
2018-04-30T12:53:09.890Z,0.50
2018-04-30T12:55:42.374Z,0.40
2018-04-30T12:58:14.113Z,0.57
2018-04-30T13:00:45.697Z,0.50
2018-04-30T13:03:17.274Z,0.77
2018-04-30T13:05:48.938Z,0.63
2018-04-30T13:08:20.489Z,1.60
2018-04-30T13:10:52.310Z,0.83
2018-04-30T13:13:24.098Z,2.03
2018-04-30T13:15:56.522Z,0.50
2018-04-30T13:18:29.062Z,0.40
2018-04-30T13:21:00.444Z,2.40
2018-04-30T13:23:32.856Z,0.30
2018-04-30T13:26:03.961Z,0.40
2018-04-30T13:28:35.903Z,1.60
2018-04-30T13:31:07.588Z,0.37
2018-04-30T13:33:39.014Z,0.53
2018-04-30T13:36:11.161Z,0.40
2018-04-30T13:38:42.679Z,0.40
2018-04-30T13:41:14.157Z,1.73
2018-04-30T13:43:45.624Z,0.67
2018-04-30T13:46:17.106Z,0.67
2018-04-30T13:48:49.319Z,0.40
2018-04-30T13:51:20.739Z,2.07
2018-04-30T13:53:52.112Z,0.87
2018-04-30T13:56:23.459Z,1.80
2018-04-30T13:58:54.884Z,0.40
2018-04-30T14:01:27.493Z,1.80
2018-04-30T14:03:58.913Z,0.70
2018-04-30T14:06:35.808Z,0.33
2018-04-30T14:09:07.475Z,0.97
2018-04-30T14:11:39.013Z,0.33
2018-04-30T14:14:10.348Z,1.03
2018-04-30T14:16:42.526Z,0.20
2018-04-30T14:19:14.684Z,2.57
2018-04-30T14:21:47.930Z,0.40
2018-04-30T14:24:19.280Z,0.37
2018-04-30T14:26:51.618Z,1.43
2018-04-30T14:29:22.941Z,1.73
2018-04-30T14:31:55.074Z,0.57
2018-04-30T14:34:26.561Z,0.97
2018-04-30T14:36:57.892Z,1.17
2018-04-30T14:39:29.306Z,0.33
2018-04-30T14:42:00.550Z,4.17
2018-04-30T14:44:31.802Z,0.20
2018-04-30T14:47:04.111Z,1.23
2018-04-30T14:49:35.711Z,1.50
2018-04-30T14:52:07.160Z,1.40
2018-04-30T14:54:39.305Z,0.40
2018-04-30T14:57:12.147Z,0.40
2018-04-30T14:59:43.739Z,0.30
2018-04-30T15:02:15.275Z,2.57
2018-04-30T15:04:46.690Z,0.90
2018-04-30T15:07:18.106Z,1.50
2018-04-30T15:09:50.584Z,0.80
2018-04-30T15:12:22.268Z,0.77
2018-04-30T15:14:53.693Z,0.50
2018-04-30T15:17:25.154Z,0.50
2018-04-30T15:19:57.352Z,2.70
2018-04-30T15:22:28.697Z,1.10
2018-04-30T15:25:00.078Z,0.87
2018-04-30T15:27:31.528Z,0.47
2018-04-30T15:30:02.902Z,0.67
2018-04-30T15:32:34.276Z,1.70
2018-04-30T15:35:06.414Z,0.50
2018-04-30T15:37:39.260Z,0.50
2018-04-30T15:40:10.729Z,0.50
2018-04-30T15:42:42.091Z,0.63
2018-04-30T15:45:13.492Z,1.53
2018-04-30T15:47:45.685Z,0.40
2018-04-30T15:50:18.741Z,2.00
2018-04-30T15:52:50.091Z,1.47
2018-04-30T15:55:22.248Z,0.40
2018-04-30T15:57:53.688Z,1.37
2018-04-30T16:00:25.246Z,1.10
2018-04-30T16:02:56.647Z,1.93
2018-04-30T16:05:27.877Z,0.57
2018-04-30T16:08:00.148Z,3.70
2018-04-30T16:10:31.530Z,0.73
2018-04-30T16:13:03.184Z,0.93
2018-04-30T16:15:34.598Z,0.50
2018-04-30T16:18:05.910Z,0.33
2018-04-30T16:20:37.317Z,1.87
2018-04-30T16:23:08.705Z,0.53
2018-04-30T16:25:39.982Z,0.30
2018-04-30T16:28:11.355Z,1.03
2018-04-30T16:30:43.471Z,0.30
2018-04-30T16:33:14.837Z,2.23
2018-04-30T16:35:46.949Z,0.50
2018-04-30T16:38:19.085Z,0.30
2018-04-30T16:40:51.174Z,0.47
2018-04-30T16:43:23.302Z,1.40
2018-04-30T16:45:54.680Z,0.80
2018-04-30T16:48:25.874Z,0.53
2018-04-30T16:50:57.235Z,0.30
2018-04-30T16:53:28.586Z,1.63
2018-04-30T16:55:59.923Z,0.40
2018-04-30T16:58:31.357Z,0.40
2018-04-30T17:01:03.679Z,0.40
2018-04-30T17:03:35.049Z,0.30
2018-04-30T17:06:07.163Z,0.40
2018-04-30T17:08:38.594Z,0.87
2018-04-30T17:11:10.765Z,0.67
2018-04-30T17:13:42.191Z,0.43
2018-04-30T17:16:14.419Z,1.60
2018-04-30T17:18:47.495Z,0.50
2018-04-30T17:21:18.861Z,0.43
2018-04-30T17:23:50.212Z,0.63
2018-04-30T17:26:23.173Z,0.30
2018-04-30T17:28:54.525Z,2.97
2018-04-30T17:31:26.003Z,1.60
2018-04-30T17:33:57.360Z,1.27
2018-04-30T17:36:30.828Z,0.50
2018-04-30T17:39:02.632Z,0.37
2018-04-30T17:41:35.577Z,0.40
2018-04-30T17:44:06.927Z,0.50
2018-04-30T17:46:38.433Z,1.37
2018-04-30T17:49:10.568Z,0.67
2018-04-30T17:51:41.961Z,0.40
2018-04-30T17:54:13.650Z,0.40
2018-04-30T17:56:45.129Z,0.50
2018-04-30T17:59:16.652Z,1.23
2018-04-30T18:01:48.510Z,0.73
2018-04-30T18:04:20.783Z,0.43
2018-04-30T18:06:52.327Z,0.90
2018-04-30T18:09:23.839Z,0.60
2018-04-30T18:11:55.323Z,0.30
2018-04-30T18:14:26.740Z,0.50
2018-04-30T18:16:58.123Z,0.40
2018-04-30T18:19:29.560Z,0.60
2018-04-30T18:22:01.885Z,0.37
2018-04-30T18:24:33.285Z,0.50
2018-04-30T18:27:04.522Z,0.30
2018-04-30T18:29:36.709Z,1.17
2018-04-30T18:32:08.920Z,0.47
2018-04-30T18:34:40.352Z,1.50
2018-04-30T18:37:11.763Z,2.33
2018-04-30T18:39:43.163Z,0.40
2018-04-30T18:42:14.587Z,0.30
2018-04-30T18:44:45.934Z,0.20
2018-04-30T18:47:17.315Z,1.77
2018-04-30T18:49:48.692Z,0.97
2018-04-30T18:52:20.103Z,0.50
2018-04-30T18:54:51.635Z,0.20
2018-04-30T18:57:23.183Z,0.77
2018-04-30T18:59:54.767Z,0.33
2018-04-30T19:02:27.007Z,0.90
2018-04-30T19:04:59.127Z,1.70
2018-04-30T19:07:30.522Z,0.47
2018-04-30T19:10:01.909Z,0.67
2018-04-30T19:12:33.395Z,0.73
2018-04-30T19:15:04.832Z,1.40
2018-04-30T19:17:36.210Z,0.53
2018-04-30T19:20:07.333Z,0.40
2018-04-30T19:22:38.846Z,1.57
2018-04-30T19:25:10.207Z,0.70
2018-04-30T19:27:41.595Z,0.40
2018-04-30T19:30:13.049Z,0.83
2018-04-30T19:32:44.367Z,0.20
2018-04-30T19:35:15.821Z,1.13
2018-04-30T19:37:47.238Z,0.33
2018-04-30T19:40:19.023Z,0.30
2018-04-30T19:42:50.454Z,1.90
2018-04-30T19:45:21.852Z,0.20
2018-04-30T19:47:53.235Z,0.40
2018-04-30T19:50:24.613Z,1.17
2018-04-30T19:52:55.957Z,0.80
2018-04-30T19:55:27.677Z,0.93
2018-04-30T19:57:59.885Z,1.80
2018-04-30T20:00:32.011Z,0.43
2018-04-30T20:03:03.411Z,0.30
2018-04-30T20:05:34.800Z,0.43
2018-04-30T20:08:06.226Z,1.37
2018-04-30T20:10:37.754Z,1.73
2018-04-30T20:13:09.808Z,2.80
2018-04-30T20:15:41.982Z,0.67
2018-04-30T20:18:14.219Z,0.40
2018-04-30T20:20:45.568Z,0.40
2018-04-30T20:23:18.128Z,0.27
2018-04-30T20:25:49.952Z,0.27
2018-04-30T20:28:22.951Z,0.20
2018-04-30T20:30:55.389Z,0.20
2018-04-30T20:33:26.898Z,0.30
2018-04-30T20:35:58.068Z,0.20
2018-04-30T20:38:29.570Z,0.30
2018-04-30T20:41:01.761Z,1.50
2018-04-30T20:43:33.335Z,0.30
2018-04-30T20:46:04.644Z,1.37
2018-04-30T20:48:36.072Z,3.30
2018-04-30T20:51:07.803Z,1.10
2018-04-30T20:53:39.194Z,0.57
2018-04-30T20:56:11.346Z,0.83
2018-04-30T20:58:42.702Z,0.30
2018-04-30T21:01:15.610Z,0.60
2018-04-30T21:03:46.815Z,0.93
2018-04-30T21:06:18.274Z,0.93
2018-04-30T21:09:06.487Z,0.63
2018-04-30T21:11:37.872Z,2.40
2018-04-30T21:14:09.331Z,0.40
2018-04-30T21:16:40.541Z,0.50
2018-04-30T21:19:12.124Z,0.67
2018-04-30T21:21:43.742Z,1.90
2018-04-30T21:24:15.437Z,0.63
2018-04-30T21:26:46.718Z,0.50
2018-04-30T21:29:18.273Z,0.60
2018-04-30T21:31:49.764Z,0.50
2018-04-30T21:34:21.130Z,0.70
2018-04-30T21:36:52.513Z,0.60
2018-04-30T21:39:25.650Z,1.60
2018-04-30T21:41:57.297Z,1.10
2018-04-30T21:44:28.670Z,0.50
2018-04-30T21:47:00.057Z,0.70
2018-04-30T21:49:31.360Z,1.73
2018-04-30T21:52:03.465Z,0.63
2018-04-30T21:54:36.361Z,0.93
2018-04-30T21:57:07.718Z,1.77
2018-04-30T21:59:39.806Z,3.60
2018-04-30T22:02:11.178Z,0.77
2018-04-30T22:04:42.523Z,2.87
2018-04-30T22:07:14.636Z,0.67
2018-04-30T22:09:46.023Z,0.60
2018-04-30T22:12:17.590Z,0.60
2018-04-30T22:14:48.956Z,1.67
2018-04-30T22:17:20.311Z,1.80
2018-04-30T22:19:51.699Z,0.60
2018-04-30T22:22:23.070Z,0.43
2018-04-30T22:24:55.480Z,0.70
2018-04-30T22:27:26.942Z,0.60
2018-04-30T22:29:58.646Z,1.30
2018-04-30T22:32:30.739Z,0.87
2018-04-30T22:35:02.132Z,0.47
2018-04-30T22:37:33.734Z,0.40
2018-04-30T22:40:05.128Z,0.30
2018-04-30T22:42:36.484Z,0.67
2018-04-30T22:45:08.635Z,0.80
2018-04-30T22:47:39.984Z,0.50
2018-04-30T22:50:11.373Z,0.40
2018-04-30T22:52:43.567Z,0.70
2018-04-30T22:55:15.024Z,0.50
2018-04-30T22:57:46.487Z,1.63
2018-04-30T23:00:25.746Z,0.50
2018-04-30T23:02:57.617Z,0.40
2018-04-30T23:05:29.726Z,0.87
2018-04-30T23:08:01.381Z,0.73
2018-04-30T23:10:33.013Z,0.40
2018-04-30T23:13:04.466Z,0.93
2018-04-30T23:15:35.803Z,0.40
2018-04-30T23:18:07.556Z,3.23
2018-04-30T23:20:39.195Z,0.50
2018-04-30T23:23:10.607Z,2.63
2018-04-30T23:25:41.969Z,0.70
2018-04-30T23:28:14.086Z,0.60
2018-04-30T23:30:45.418Z,0.50
2018-04-30T23:33:16.969Z,1.27
2018-04-30T23:35:48.340Z,0.80
2018-04-30T23:38:19.897Z,0.50
2018-04-30T23:40:51.263Z,0.53
2018-04-30T23:43:22.608Z,0.50
2018-04-30T23:45:54.869Z,0.50
2018-04-30T23:48:27.137Z,0.53
2018-04-30T23:50:58.498Z,0.60
2018-04-30T23:53:30.818Z,0.60
2018-04-30T23:56:02.320Z,1.40
2018-04-30T23:58:34.421Z,0.83
